createdAt,value
2023-01-27T00:01:13.612Z,89.10
2023-01-27T00:03:20.942Z,89.20
2023-01-27T00:05:28.132Z,89.20
2023-01-27T00:07:34.955Z,89.70
2023-01-27T00:09:43.566Z,89.50
2023-01-27T00:12:07.079Z,89.20
2023-01-27T00:14:14.263Z,89.20
2023-01-27T00:16:22.930Z,89.00
2023-01-27T00:18:30.110Z,89.00
2023-01-27T00:20:53.893Z,89.40
2023-01-27T00:23:17.395Z,89.90
2023-01-27T00:25:24.437Z,90.80
2023-01-27T00:27:31.603Z,91.50
2023-01-27T00:29:38.587Z,91.90
2023-01-27T00:32:04.074Z,91.70
2023-01-27T00:34:13.952Z,91.60
2023-01-27T00:36:21.169Z,91.50
2023-01-27T00:38:28.049Z,91.30
2023-01-27T00:40:35.173Z,91.10
2023-01-27T00:42:42.148Z,91.20
2023-01-27T00:45:09.761Z,91.10
2023-01-27T00:47:18.309Z,91.00
2023-01-27T00:49:25.354Z,90.60
2023-01-27T00:51:32.179Z,90.30
2023-01-27T00:53:39.819Z,90.30
2023-01-27T00:55:48.259Z,90.40
2023-01-27T00:57:55.494Z,90.20
2023-01-27T01:00:02.397Z,89.90
2023-01-27T01:02:10.017Z,89.40
2023-01-27T01:04:18.695Z,88.90
2023-01-27T01:06:26.491Z,88.50
2023-01-27T01:08:35.673Z,88.10
2023-01-27T01:10:43.003Z,87.60
2023-01-27T01:12:49.941Z,87.00
2023-01-27T01:14:58.577Z,86.80
2023-01-27T01:17:05.470Z,86.20
2023-01-27T01:19:13.066Z,85.60
2023-01-27T01:21:22.341Z,84.90
2023-01-27T01:23:29.578Z,84.10
2023-01-27T01:25:36.491Z,83.10
2023-01-27T01:27:43.476Z,82.60
2023-01-27T01:29:50.351Z,82.30
2023-01-27T01:31:57.532Z,82.00
2023-01-27T01:34:04.356Z,81.60
2023-01-27T01:36:13.026Z,80.60
2023-01-27T01:38:21.685Z,80.70
2023-01-27T01:40:29.033Z,80.40
2023-01-27T01:42:55.868Z,79.80
2023-01-27T01:45:43.838Z,78.70
2023-01-27T01:47:50.678Z,78.60
2023-01-27T01:49:57.812Z,78.60
2023-01-27T01:52:10.369Z,78.20
2023-01-27T01:54:21.693Z,78.00
2023-01-27T01:56:34.312Z,76.90
2023-01-27T02:00:53.739Z,75.30
2023-01-27T02:03:00.832Z,73.70
2023-01-27T02:05:12.054Z,72.70
2023-01-27T02:07:26.660Z,72.50
2023-01-27T02:09:36.081Z,73.10
2023-01-27T02:11:42.955Z,71.90
2023-01-27T02:13:50.341Z,71.50
2023-01-27T02:15:57.983Z,71.00
2023-01-27T02:18:06.962Z,71.00
2023-01-27T02:20:22.997Z,71.00
2023-01-27T02:22:41.117Z,70.30
2023-01-27T02:24:53.540Z,70.50
2023-01-27T02:27:02.306Z,68.90
2023-01-27T02:29:12.264Z,67.70
2023-01-27T02:31:19.904Z,68.10
2023-01-27T02:33:28.122Z,68.00
2023-01-27T02:35:39.992Z,66.90
2023-01-27T02:37:46.615Z,66.70
2023-01-27T02:39:55.892Z,65.60
2023-01-27T02:42:07.536Z,66.10
2023-01-27T02:44:16.348Z,65.20
2023-01-27T02:46:24.019Z,65.40
2023-01-27T02:48:31.176Z,65.40
2023-01-27T02:50:38.152Z,63.90
2023-01-27T02:52:45.382Z,65.50
2023-01-27T02:54:52.307Z,63.60
2023-01-27T02:56:59.591Z,64.40
2023-01-27T02:59:10.202Z,64.00
2023-01-27T03:01:21.044Z,63.80
2023-01-27T03:03:27.944Z,62.80
2023-01-27T03:05:35.185Z,64.00
2023-01-27T03:07:42.101Z,63.00
2023-01-27T03:09:49.541Z,62.30
2023-01-27T03:12:12.491Z,61.60
2023-01-27T03:14:21.677Z,60.40
2023-01-27T03:16:45.133Z,61.20
2023-01-27T03:18:52.265Z,60.30
2023-01-27T03:21:05.412Z,59.90
2023-01-27T03:23:13.333Z,61.40
2023-01-27T03:25:20.570Z,61.00
2023-01-27T03:27:28.008Z,59.80
2023-01-27T03:30:10.667Z,58.20
2023-01-27T03:32:18.004Z,58.40
2023-01-27T03:34:37.066Z,57.90
2023-01-27T03:37:05.595Z,58.20
2023-01-27T03:39:29.065Z,57.90
2023-01-27T03:41:52.938Z,58.00
2023-01-27T03:44:17.834Z,58.00
2023-01-27T03:46:27.484Z,56.80
2023-01-27T03:48:34.838Z,55.60
2023-01-27T03:50:44.747Z,56.10
2023-01-27T03:53:05.656Z,56.90
2023-01-27T03:55:13.894Z,55.70
2023-01-27T03:57:20.888Z,56.00
2023-01-27T03:59:28.117Z,55.10
2023-01-27T04:01:36.835Z,55.20
2023-01-27T04:04:00.708Z,55.50
2023-01-27T04:06:25.300Z,55.30
2023-01-27T04:08:32.384Z,54.60
2023-01-27T04:10:39.303Z,54.00
2023-01-27T04:12:45.255Z,53.50
2023-01-27T04:14:53.614Z,53.50
2023-01-27T04:17:04.284Z,53.80
2023-01-27T04:19:13.050Z,53.90
2023-01-27T04:21:20.278Z,54.00
2023-01-27T04:23:27.086Z,53.60
2023-01-27T04:25:34.386Z,52.50
2023-01-27T04:27:41.209Z,52.00
2023-01-27T04:29:48.511Z,52.40
2023-01-27T04:31:55.650Z,52.20
2023-01-27T04:34:04.292Z,52.00
2023-01-27T04:36:12.041Z,51.10
2023-01-27T04:38:19.370Z,52.10
2023-01-27T04:40:26.404Z,51.30
2023-01-27T04:42:33.531Z,52.00
2023-01-27T04:44:40.611Z,51.80
2023-01-27T04:46:47.893Z,51.00
2023-01-27T04:48:54.921Z,51.20
2023-01-27T04:51:03.791Z,51.20
2023-01-27T04:53:10.673Z,51.00
2023-01-27T04:55:18.057Z,51.60
2023-01-27T04:57:24.879Z,51.00
2023-01-27T04:59:32.081Z,50.80
2023-01-27T05:01:38.967Z,50.30
2023-01-27T05:03:46.272Z,49.80
2023-01-27T05:05:53.192Z,50.90
2023-01-27T05:08:06.774Z,50.40
2023-01-27T05:10:14.829Z,51.20
2023-01-27T05:12:21.907Z,51.50
2023-01-27T05:14:29.190Z,50.30
2023-01-27T05:16:36.182Z,50.90
2023-01-27T05:18:43.965Z,50.50
2023-01-27T05:20:51.572Z,50.40
2023-01-27T05:25:36.722Z,49.50
2023-01-27T05:27:43.719Z,49.70
2023-01-27T05:29:50.642Z,49.00
2023-01-27T05:31:57.849Z,49.60
2023-01-27T05:34:05.517Z,48.90
2023-01-27T05:36:14.749Z,48.80
2023-01-27T05:38:21.671Z,48.80
2023-01-27T05:40:29.012Z,48.90
2023-01-27T05:42:37.622Z,49.30
2023-01-27T05:44:44.803Z,48.50
2023-01-27T05:46:51.782Z,49.10
2023-01-27T05:48:59.992Z,48.80
2023-01-27T05:51:07.734Z,48.60
2023-01-27T05:53:14.860Z,48.60
2023-01-27T05:55:22.095Z,48.10
2023-01-27T05:57:29.055Z,49.60
2023-01-27T05:59:37.788Z,50.00
2023-01-27T06:01:44.971Z,49.80
2023-01-27T06:03:52.768Z,49.70
2023-01-27T06:06:00.358Z,51.00
2023-01-27T06:08:07.386Z,50.00
2023-01-27T06:10:15.344Z,49.90
2023-01-27T06:12:22.161Z,49.10
2023-01-27T06:14:29.289Z,49.10
2023-01-27T06:16:37.872Z,49.50
2023-01-27T06:18:45.598Z,49.30
2023-01-27T06:20:52.629Z,48.40
2023-01-27T06:23:00.116Z,47.50
2023-01-27T06:25:07.090Z,49.70
2023-01-27T06:27:14.579Z,48.80
2023-01-27T06:29:21.510Z,49.20
2023-01-27T06:31:29.440Z,48.60
2023-01-27T06:33:38.109Z,48.30
2023-01-27T06:35:45.456Z,48.30
2023-01-27T06:37:53.061Z,47.60
2023-01-27T06:40:00.547Z,48.90
2023-01-27T06:42:14.512Z,48.30
2023-01-27T06:44:21.813Z,48.50
2023-01-27T06:46:28.743Z,48.20
2023-01-27T06:48:38.840Z,47.90
2023-01-27T06:50:45.717Z,47.40
2023-01-27T06:52:52.844Z,48.10
2023-01-27T06:54:59.768Z,47.50
2023-01-27T06:57:07.156Z,47.80
2023-01-27T06:59:14.028Z,47.80
2023-01-27T07:01:22.885Z,47.50
2023-01-27T07:03:30.081Z,47.40
2023-01-27T07:05:39.004Z,47.90
2023-01-27T07:07:45.779Z,47.50
2023-01-27T07:09:53.139Z,47.60
2023-01-27T07:11:59.945Z,47.60
2023-01-27T07:14:09.017Z,48.00
2023-01-27T07:16:17.415Z,47.10
2023-01-27T07:18:25.224Z,47.50
2023-01-27T07:20:32.455Z,47.80
2023-01-27T07:22:41.428Z,47.40
2023-01-27T07:24:48.351Z,47.60
2023-01-27T07:26:55.376Z,47.40
2023-01-27T07:29:02.405Z,47.80
2023-01-27T07:31:09.909Z,47.50
2023-01-27T07:33:17.335Z,47.70
2023-01-27T07:35:24.830Z,47.60
2023-01-27T07:37:31.696Z,47.20
2023-01-27T07:39:40.886Z,47.40
2023-01-27T07:41:47.750Z,48.00
2023-01-27T07:43:54.990Z,47.80
2023-01-27T07:46:04.402Z,48.20
2023-01-27T07:48:13.551Z,48.30
2023-01-27T07:50:20.832Z,47.80
2023-01-27T07:52:28.114Z,47.70
2023-01-27T07:54:34.933Z,49.00
2023-01-27T07:56:43.908Z,48.90
2023-01-27T07:58:50.833Z,48.90
2023-01-27T08:00:57.908Z,48.60
2023-01-27T08:03:07.095Z,48.60
2023-01-27T08:05:14.687Z,48.20
2023-01-27T08:07:21.677Z,49.00
2023-01-27T08:09:28.842Z,49.00
2023-01-27T08:11:35.722Z,50.40
2023-01-27T08:13:44.751Z,49.80
2023-01-27T08:15:57.971Z,49.70
2023-01-27T08:18:05.195Z,49.40
2023-01-27T08:20:13.917Z,48.20
2023-01-27T08:22:23.746Z,48.30
2023-01-27T08:24:30.734Z,48.90
2023-01-27T08:26:37.917Z,49.20
2023-01-27T08:28:46.485Z,49.10
2023-01-27T08:30:54.200Z,48.90
2023-01-27T08:33:01.061Z,49.10
2023-01-27T08:35:08.587Z,49.10
2023-01-27T08:37:15.879Z,50.30
2023-01-27T08:39:23.056Z,49.30
2023-01-27T08:41:31.930Z,49.60
2023-01-27T08:43:39.464Z,50.10
2023-01-27T08:45:48.308Z,49.70
2023-01-27T08:47:55.619Z,49.80
2023-01-27T08:50:02.542Z,49.40
2023-01-27T08:52:09.881Z,49.70
2023-01-27T08:54:16.805Z,50.10
2023-01-27T08:56:23.896Z,49.80
2023-01-27T08:58:31.066Z,49.90
2023-01-27T09:00:38.250Z,50.30
2023-01-27T09:02:46.967Z,50.50
2023-01-27T09:04:54.133Z,49.90
2023-01-27T09:07:01.023Z,50.10
2023-01-27T09:09:14.296Z,51.30
2023-01-27T09:11:21.612Z,50.80
2023-01-27T09:13:29.380Z,51.20
2023-01-27T09:15:37.279Z,51.70
2023-01-27T09:17:46.385Z,51.30
2023-01-27T09:19:53.231Z,51.50
2023-01-27T09:22:00.355Z,51.60
2023-01-27T09:24:07.358Z,51.40
2023-01-27T09:26:14.566Z,51.00
2023-01-27T09:28:21.594Z,51.30
2023-01-27T09:30:30.362Z,51.40
2023-01-27T09:32:37.390Z,51.30
2023-01-27T09:34:46.473Z,51.40
2023-01-27T09:36:56.058Z,51.60
2023-01-27T09:39:07.493Z,51.90
2023-01-27T09:41:57.624Z,51.70
2023-01-27T09:44:21.088Z,52.00
2023-01-27T09:46:41.473Z,52.10
2023-01-27T09:48:59.925Z,52.30
2023-01-27T09:51:16.380Z,52.00
2023-01-27T09:53:54.789Z,52.30
2023-01-27T09:56:08.441Z,52.00
2023-01-27T09:58:28.606Z,52.40
2023-01-27T10:00:49.510Z,52.30
2023-01-27T10:03:16.558Z,52.70
2023-01-27T10:05:48.216Z,52.40
2023-01-27T10:08:35.794Z,52.20
2023-01-27T10:11:02.124Z,51.90
2023-01-27T10:13:26.642Z,52.50
2023-01-27T10:15:49.109Z,52.80
2023-01-27T10:18:05.516Z,52.90
2023-01-27T10:20:28.297Z,52.60
2023-01-27T10:22:45.614Z,52.60
2023-01-27T10:25:03.576Z,52.70
2023-01-27T10:27:17.033Z,52.90
2023-01-27T10:29:28.202Z,53.30
2023-01-27T10:31:39.689Z,53.50
2023-01-27T10:33:54.693Z,53.70
2023-01-27T10:36:03.375Z,53.90
2023-01-27T10:38:17.718Z,54.00
2023-01-27T10:40:32.126Z,54.10
2023-01-27T10:42:46.875Z,54.20
2023-01-27T10:45:12.236Z,54.40
2023-01-27T10:47:30.940Z,53.90
2023-01-27T10:49:42.419Z,54.30
2023-01-27T10:51:56.418Z,54.50
2023-01-27T10:54:08.865Z,54.70
2023-01-27T10:56:25.728Z,55.00
2023-01-27T10:58:48.022Z,55.30
2023-01-27T11:01:19.973Z,55.40
2023-01-27T11:03:32.019Z,55.30
2023-01-27T11:05:42.818Z,54.80
2023-01-27T11:07:54.265Z,54.30
2023-01-27T11:10:05.955Z,54.30
2023-01-27T11:12:16.667Z,54.00
2023-01-27T11:14:31.528Z,54.00
2023-01-27T11:16:41.805Z,54.10
2023-01-27T11:18:52.499Z,54.10
2023-01-27T11:21:03.216Z,54.40
2023-01-27T11:23:20.685Z,54.30
2023-01-27T11:25:31.997Z,54.50
2023-01-27T11:27:57.019Z,54.80
2023-01-27T11:30:13.010Z,54.70
2023-01-27T11:32:33.237Z,55.20
2023-01-27T11:34:47.799Z,55.50
2023-01-27T11:36:55.179Z,55.20
2023-01-27T11:39:02.670Z,55.60
2023-01-27T11:41:10.029Z,55.80
2023-01-27T11:43:21.589Z,56.00
2023-01-27T11:45:30.615Z,56.10
2023-01-27T11:47:41.724Z,56.40
2023-01-27T11:49:53.169Z,56.40
2023-01-27T11:52:06.800Z,56.30
2023-01-27T11:54:21.000Z,56.40
2023-01-27T11:56:28.179Z,56.80
2023-01-27T11:58:41.966Z,56.60
2023-01-27T12:00:55.971Z,56.80
2023-01-27T12:03:09.902Z,57.20
2023-01-27T12:05:20.878Z,57.00
2023-01-27T12:07:41.619Z,57.20
2023-01-27T12:09:48.440Z,57.30
2023-01-27T12:12:14.367Z,57.00
2023-01-27T12:14:21.237Z,57.20
2023-01-27T12:16:46.696Z,57.20
2023-01-27T12:18:58.332Z,57.50
2023-01-27T12:21:05.410Z,57.60
2023-01-27T12:23:23.537Z,58.00
2023-01-27T12:25:32.933Z,57.70
2023-01-27T12:27:45.745Z,57.50
2023-01-27T12:29:56.819Z,57.60
2023-01-27T12:32:05.606Z,57.40
2023-01-27T12:34:23.520Z,57.00
2023-01-27T12:36:31.422Z,56.60
2023-01-27T12:38:40.499Z,56.70
2023-01-27T12:40:50.237Z,56.50
2023-01-27T12:43:13.859Z,56.40
2023-01-27T12:45:26.978Z,56.20
2023-01-27T12:47:35.901Z,56.20
2023-01-27T12:49:45.692Z,56.40
2023-01-27T12:51:58.723Z,56.30
2023-01-27T12:54:19.720Z,56.40
2023-01-27T12:56:27.613Z,55.90
2023-01-27T12:58:40.636Z,55.90
2023-01-27T13:00:50.287Z,56.00
2023-01-27T13:03:06.976Z,55.60
2023-01-27T13:05:21.072Z,55.60
2023-01-27T13:07:31.176Z,55.60
2023-01-27T13:09:42.090Z,55.50
2023-01-27T13:11:49.374Z,55.40
2023-01-27T13:13:56.505Z,55.60
2023-01-27T13:16:09.514Z,55.70
2023-01-27T13:18:24.588Z,55.80
2023-01-27T13:20:34.847Z,56.20
2023-01-27T13:22:47.717Z,55.40
2023-01-27T13:25:00.137Z,56.00
2023-01-27T13:27:09.801Z,56.00
2023-01-27T13:29:21.200Z,56.00
2023-01-27T13:31:43.974Z,56.00
2023-01-27T13:33:57.613Z,55.60
2023-01-27T13:36:10.433Z,56.00
2023-01-27T13:38:22.573Z,55.90
2023-01-27T13:40:34.655Z,56.10
2023-01-27T13:42:47.081Z,56.30
2023-01-27T13:44:59.787Z,56.40
2023-01-27T13:47:13.879Z,56.50
2023-01-27T13:49:34.374Z,56.60
2023-01-27T13:51:41.864Z,56.80
2023-01-27T13:53:50.168Z,56.70
2023-01-27T13:56:09.876Z,56.90
2023-01-27T13:58:24.705Z,57.50
2023-01-27T14:00:39.057Z,57.60
2023-01-27T14:03:22.826Z,57.90
2023-01-27T14:05:47.163Z,57.30
2023-01-27T14:07:59.941Z,57.60
2023-01-27T14:10:20.235Z,56.30
2023-01-27T14:12:41.747Z,56.60
2023-01-27T14:14:58.961Z,56.40
2023-01-27T14:17:31.031Z,56.30
2023-01-27T14:19:49.732Z,56.10
2023-01-27T14:22:03.162Z,56.30
2023-01-27T14:24:22.029Z,56.60
2023-01-27T14:26:46.656Z,56.70
2023-01-27T14:29:05.426Z,56.80
2023-01-27T14:31:19.010Z,57.00
2023-01-27T14:33:49.145Z,57.10
2023-01-27T14:36:02.742Z,57.00
2023-01-27T14:38:20.000Z,56.60
2023-01-27T14:40:32.569Z,56.90
2023-01-27T14:42:48.087Z,56.40
2023-01-27T14:45:04.342Z,56.30
2023-01-27T14:47:19.305Z,56.30
2023-01-27T14:49:34.216Z,56.20
2023-01-27T14:51:46.248Z,55.90
2023-01-27T14:54:20.014Z,56.20
2023-01-27T14:56:38.410Z,56.00
2023-01-27T14:58:56.606Z,56.10
2023-01-27T15:01:14.279Z,56.10
2023-01-27T15:03:51.166Z,56.70
2023-01-27T15:06:05.406Z,56.20
2023-01-27T15:08:20.113Z,56.60
2023-01-27T15:10:30.681Z,56.60
2023-01-27T15:12:55.880Z,56.30
2023-01-27T15:15:31.273Z,56.70
2023-01-27T15:17:54.978Z,56.40
2023-01-27T15:20:33.837Z,56.50
2023-01-27T15:22:57.010Z,56.70
2023-01-27T15:25:22.182Z,56.80
2023-01-27T15:27:31.590Z,57.00
2023-01-27T15:29:38.760Z,57.30
2023-01-27T15:31:46.230Z,57.80
2023-01-27T15:33:58.894Z,58.00
2023-01-27T15:36:21.519Z,57.70
2023-01-27T15:38:35.932Z,57.50
2023-01-27T15:41:05.834Z,57.70
2023-01-27T15:43:18.405Z,58.00
2023-01-27T15:45:33.172Z,58.10
2023-01-27T15:47:40.036Z,57.70
2023-01-27T15:49:50.648Z,57.60
2023-01-27T15:51:59.933Z,58.00
2023-01-27T15:54:07.880Z,58.10
2023-01-27T15:56:14.907Z,58.30
2023-01-27T15:58:31.552Z,58.90
2023-01-27T16:00:40.636Z,59.10
2023-01-27T16:02:53.860Z,59.30
2023-01-27T16:05:11.130Z,59.60
2023-01-27T16:07:27.525Z,59.70
2023-01-27T16:09:41.628Z,59.90
2023-01-27T16:12:02.427Z,60.30
2023-01-27T16:14:45.547Z,61.10
2023-01-27T16:17:30.411Z,61.50
2023-01-27T16:19:39.949Z,60.10
2023-01-27T16:21:52.607Z,60.30
2023-01-27T16:24:04.078Z,59.90
2023-01-27T16:26:30.767Z,59.40
2023-01-27T16:28:40.315Z,58.70
2023-01-27T16:31:00.130Z,58.50
2023-01-27T16:33:10.246Z,58.30
2023-01-27T16:35:21.582Z,58.30
2023-01-27T16:37:30.905Z,58.40
2023-01-27T16:39:46.845Z,58.60
2023-01-27T16:41:58.256Z,59.10
2023-01-27T16:44:08.271Z,59.70
2023-01-27T16:46:32.194Z,59.20
2023-01-27T16:48:45.021Z,59.40
2023-01-27T16:50:52.908Z,59.70
2023-01-27T16:52:59.938Z,60.00
2023-01-27T16:55:07.403Z,60.40
2023-01-27T16:57:32.975Z,60.20
2023-01-27T16:59:42.934Z,60.20
2023-01-27T17:01:54.313Z,60.40
2023-01-27T17:04:19.136Z,60.80
2023-01-27T17:06:29.620Z,61.10
2023-01-27T17:08:38.181Z,61.30
2023-01-27T17:10:48.335Z,60.90
2023-01-27T17:12:55.208Z,61.20
2023-01-27T17:15:03.012Z,61.50
2023-01-27T17:17:21.463Z,61.30
2023-01-27T17:19:32.063Z,61.50
2023-01-27T17:21:43.756Z,61.60
2023-01-27T17:23:50.344Z,61.60
2023-01-27T17:25:57.553Z,61.80
2023-01-27T17:28:05.758Z,61.90
2023-01-27T17:30:23.694Z,61.90
2023-01-27T17:32:35.082Z,62.10
2023-01-27T17:34:43.888Z,62.20
2023-01-27T17:37:10.680Z,62.50
2023-01-27T17:39:29.130Z,62.30
2023-01-27T17:41:40.402Z,62.50
2023-01-27T17:43:48.608Z,62.20
2023-01-27T17:46:16.565Z,61.60
2023-01-27T17:48:25.302Z,62.40
2023-01-27T17:50:37.437Z,62.60
2023-01-27T17:52:52.501Z,62.60
2023-01-27T17:55:07.219Z,62.30
2023-01-27T17:57:21.275Z,62.30
2023-01-27T17:59:29.925Z,62.60
2023-01-27T18:01:37.742Z,62.00
2023-01-27T18:03:46.444Z,62.00
2023-01-27T18:05:56.114Z,61.70
2023-01-27T18:08:04.853Z,61.80
2023-01-27T18:10:27.544Z,61.90
2023-01-27T18:12:36.810Z,62.20
2023-01-27T18:14:43.956Z,62.50
2023-01-27T18:17:02.035Z,62.50
2023-01-27T18:19:24.379Z,62.60
2023-01-27T18:21:31.407Z,62.80
2023-01-27T18:23:40.993Z,62.60
2023-01-27T18:25:51.891Z,62.70
2023-01-27T18:28:02.071Z,62.90
2023-01-27T18:30:16.976Z,63.80
2023-01-27T18:32:27.232Z,63.70
2023-01-27T18:34:36.817Z,64.20
2023-01-27T18:36:56.556Z,64.00
2023-01-27T18:39:03.727Z,64.80
2023-01-27T18:41:16.386Z,64.80
2023-01-27T18:43:23.208Z,64.50
2023-01-27T18:45:31.260Z,64.20
2023-01-27T18:47:39.672Z,64.70
2023-01-27T18:49:48.694Z,65.00
2023-01-27T18:51:56.081Z,65.00
2023-01-27T18:54:03.267Z,64.90
2023-01-27T18:56:10.754Z,65.10
2023-01-27T18:58:19.061Z,64.90
2023-01-27T19:00:27.600Z,65.10
2023-01-27T19:02:34.754Z,65.00
2023-01-27T19:04:41.680Z,65.30
2023-01-27T19:06:51.456Z,65.20
2023-01-27T19:08:58.278Z,65.30
2023-01-27T19:11:05.579Z,65.30
2023-01-27T19:13:15.484Z,65.50
2023-01-27T19:15:24.862Z,65.70
2023-01-27T19:17:31.685Z,65.80
2023-01-27T19:19:39.271Z,65.90
2023-01-27T19:21:46.155Z,65.50
2023-01-27T19:23:55.196Z,65.10
2023-01-27T19:26:03.274Z,65.30
2023-01-27T19:28:16.859Z,65.70
2023-01-27T19:30:28.293Z,66.30
2023-01-27T19:32:35.469Z,66.10
2023-01-27T19:34:42.245Z,66.70
2023-01-27T19:36:49.409Z,66.60
2023-01-27T19:39:02.551Z,66.80
2023-01-27T19:41:10.941Z,66.90
2023-01-27T19:43:18.442Z,66.80
2023-01-27T19:45:26.316Z,67.30
2023-01-27T19:47:33.146Z,67.40
2023-01-27T19:49:40.295Z,67.20
2023-01-27T19:51:47.100Z,67.00
2023-01-27T19:53:54.415Z,67.30
2023-01-27T19:56:02.915Z,67.30
2023-01-27T19:58:10.148Z,67.90
2023-01-27T20:00:25.829Z,68.10
2023-01-27T20:02:33.139Z,68.40
2023-01-27T20:04:40.045Z,68.30
2023-01-27T20:06:47.219Z,67.90
2023-01-27T20:08:56.548Z,68.10
2023-01-27T20:11:05.268Z,68.60
2023-01-27T20:13:16.649Z,68.20
2023-01-27T20:15:25.338Z,68.40
2023-01-27T20:17:32.139Z,68.30
2023-01-27T20:19:39.051Z,68.00
2023-01-27T20:21:46.457Z,68.10
2023-01-27T20:23:53.328Z,67.90
2023-01-27T20:26:00.658Z,67.70
2023-01-27T20:28:09.428Z,67.90
2023-01-27T20:30:19.951Z,68.20
2023-01-27T20:32:27.067Z,68.50
2023-01-27T20:34:34.353Z,67.70
2023-01-27T20:36:41.284Z,68.00
2023-01-27T20:38:48.867Z,68.00
2023-01-27T20:40:55.732Z,68.30
2023-01-27T20:43:03.438Z,68.20
2023-01-27T20:45:13.480Z,68.30
2023-01-27T20:47:20.821Z,68.50
2023-01-27T20:49:28.056Z,68.40
2023-01-27T20:51:35.491Z,68.30
2023-01-27T20:53:46.259Z,68.50
2023-01-27T20:55:53.540Z,68.50
2023-01-27T20:58:01.858Z,68.70
2023-01-27T21:00:12.203Z,68.80
2023-01-27T21:02:19.562Z,68.90
2023-01-27T21:04:26.882Z,69.40
2023-01-27T21:06:33.748Z,69.20
2023-01-27T21:08:40.929Z,69.20
2023-01-27T21:10:47.857Z,69.20
2023-01-27T21:12:54.888Z,69.90
2023-01-27T21:15:02.716Z,70.10
2023-01-27T21:17:12.728Z,69.80
2023-01-27T21:19:19.900Z,69.80
2023-01-27T21:21:28.937Z,71.30
2023-01-27T21:23:36.643Z,71.80
2023-01-27T21:25:43.810Z,71.40
2023-01-27T21:27:50.842Z,71.20
2023-01-27T21:29:57.869Z,72.10
2023-01-27T21:32:04.788Z,72.10
2023-01-27T21:34:14.287Z,72.90
2023-01-27T21:36:22.076Z,72.60
2023-01-27T21:38:29.407Z,72.30
2023-01-27T21:40:36.320Z,71.90
2023-01-27T21:43:00.060Z,72.20
2023-01-27T21:45:14.738Z,72.60
2023-01-27T21:47:22.458Z,72.40
2023-01-27T21:49:31.223Z,72.80
2023-01-27T21:51:38.558Z,72.80
2023-01-27T21:53:45.790Z,73.50
2023-01-27T21:55:52.923Z,74.20
2023-01-27T21:57:59.847Z,74.20
2023-01-27T22:00:07.746Z,73.60
2023-01-27T22:02:23.528Z,74.20
2023-01-27T22:04:32.262Z,74.10
2023-01-27T22:06:40.714Z,74.40
2023-01-27T22:08:47.738Z,74.30
2023-01-27T22:10:54.969Z,74.70
2023-01-27T22:13:02.763Z,74.90
2023-01-27T22:15:11.367Z,74.70
2023-01-27T22:17:19.995Z,74.80
2023-01-27T22:19:27.124Z,76.00
2023-01-27T22:21:36.154Z,75.40
2023-01-27T22:23:43.183Z,75.30
2023-01-27T22:25:52.471Z,75.30
2023-01-27T22:27:59.371Z,75.80
2023-01-27T22:30:06.617Z,76.10
2023-01-27T22:32:13.499Z,77.10
2023-01-27T22:34:20.979Z,77.50
2023-01-27T22:36:27.751Z,78.60
2023-01-27T22:38:40.565Z,78.90
2023-01-27T22:40:47.438Z,79.40
2023-01-27T22:42:54.520Z,79.00
2023-01-27T22:45:01.495Z,79.20
2023-01-27T22:47:08.626Z,79.20
2023-01-27T22:49:15.537Z,79.30
2023-01-27T22:51:22.630Z,78.90
2023-01-27T22:53:29.462Z,79.60
2023-01-27T22:55:38.323Z,80.30
2023-01-27T22:57:48.789Z,80.80
2023-01-27T22:59:55.963Z,81.10
2023-01-27T23:02:02.953Z,81.30
2023-01-27T23:04:10.121Z,80.90
2023-01-27T23:06:16.998Z,80.70
2023-01-27T23:08:24.028Z,79.90
2023-01-27T23:10:30.899Z,79.60
2023-01-27T23:12:39.830Z,79.30
2023-01-27T23:14:46.747Z,79.80
2023-01-27T23:16:54.570Z,79.20
2023-01-27T23:19:01.472Z,79.80
2023-01-27T23:21:09.930Z,79.40
2023-01-27T23:23:17.455Z,80.30
2023-01-27T23:25:24.859Z,80.10
2023-01-27T23:27:31.783Z,80.00
2023-01-27T23:29:40.410Z,79.80
2023-01-27T23:31:47.437Z,79.80
2023-01-27T23:33:54.815Z,80.30
2023-01-27T23:36:01.838Z,79.90
2023-01-27T23:38:19.508Z,79.20
2023-01-27T23:40:34.685Z,78.60
2023-01-27T23:42:41.968Z,78.10
2023-01-27T23:44:51.206Z,77.50
2023-01-27T23:46:58.538Z,77.40
2023-01-27T23:49:05.366Z,76.80
2023-01-27T23:51:13.296Z,77.60
2023-01-27T23:53:20.292Z,77.20
2023-01-27T23:55:27.463Z,77.00
2023-01-27T23:57:34.390Z,77.70
2023-01-27T23:59:42.287Z,76.80
